createdAt,value
2023-04-03T00:01:20.842Z,9.99
2023-04-03T00:04:08.289Z,10.00
2023-04-03T00:06:38.283Z,9.98
2023-04-03T00:09:06.379Z,10.16
2023-04-03T00:11:34.771Z,10.22
2023-04-03T00:14:02.668Z,10.19
2023-04-03T00:16:36.533Z,10.17
2023-04-03T00:19:08.299Z,10.25
2023-04-03T00:21:35.957Z,10.11
2023-04-03T00:24:05.246Z,10.11
2023-04-03T00:26:40.148Z,10.02
2023-04-03T00:29:07.721Z,10.08
2023-04-03T00:31:35.215Z,10.13
2023-04-03T00:34:02.850Z,10.16
2023-04-03T00:36:31.955Z,10.17
2023-04-03T00:38:59.470Z,10.24
2023-04-03T00:41:27.224Z,10.11
2023-04-03T00:43:54.784Z,10.31
2023-04-03T00:46:22.357Z,10.31
2023-04-03T00:48:50.714Z,10.27
2023-04-03T00:51:24.627Z,10.13
2023-04-03T00:53:59.700Z,10.29
2023-04-03T00:56:31.452Z,10.44
2023-04-03T00:59:06.634Z,10.29
2023-04-03T01:01:34.526Z,10.36
2023-04-03T01:04:04.288Z,10.26
2023-04-03T01:06:37.491Z,10.32
2023-04-03T01:09:06.342Z,10.45
2023-04-03T01:11:34.035Z,10.19
2023-04-03T01:14:03.070Z,10.26
2023-04-03T01:16:33.028Z,10.25
2023-04-03T01:19:02.542Z,10.35
2023-04-03T01:21:55.350Z,10.24
2023-04-03T01:24:34.320Z,10.23
2023-04-03T01:27:05.071Z,10.29
2023-04-03T01:29:33.030Z,10.42
2023-04-03T01:32:04.278Z,10.38
2023-04-03T01:34:32.773Z,10.36
2023-04-03T01:37:00.414Z,10.40
2023-04-03T01:39:28.126Z,10.18
2023-04-03T01:41:55.768Z,10.23
2023-04-03T01:44:23.270Z,10.27
2023-04-03T01:46:50.885Z,10.20
2023-04-03T01:49:18.680Z,10.20
2023-04-03T01:51:47.118Z,10.21
2023-04-03T01:54:14.950Z,10.07
2023-04-03T01:56:43.016Z,10.05
2023-04-03T01:59:10.718Z,9.85
2023-04-03T02:01:40.579Z,10.01
2023-04-03T02:04:08.699Z,9.97
2023-04-03T02:06:36.375Z,10.00
2023-04-03T02:09:05.256Z,10.18
2023-04-03T02:11:33.105Z,10.12
2023-04-03T02:14:00.846Z,10.10
2023-04-03T02:16:29.855Z,10.06
2023-04-03T02:18:57.809Z,10.09
2023-04-03T02:21:27.334Z,10.15
2023-04-03T02:23:55.040Z,10.27
2023-04-03T02:26:23.000Z,10.24
2023-04-03T02:28:51.070Z,10.05
2023-04-03T02:31:19.219Z,10.14
2023-04-03T02:33:46.837Z,10.11
2023-04-03T02:36:14.470Z,10.10
2023-04-03T02:38:42.083Z,10.10
2023-04-03T02:41:11.772Z,10.30
2023-04-03T02:43:40.283Z,9.99
2023-04-03T02:46:08.347Z,9.96
2023-04-03T02:48:36.638Z,10.33
2023-04-03T02:51:04.319Z,10.14
2023-04-03T02:53:32.327Z,10.19
2023-04-03T02:55:59.803Z,9.92
2023-04-03T02:58:27.510Z,10.10
2023-04-03T03:00:55.456Z,10.13
2023-04-03T03:03:23.514Z,10.18
2023-04-03T03:05:51.118Z,10.46
2023-04-03T03:08:21.318Z,10.53
2023-04-03T03:10:52.290Z,10.17
2023-04-03T03:13:19.791Z,10.56
2023-04-03T03:15:47.794Z,10.34
2023-04-03T03:18:16.038Z,10.20
2023-04-03T03:20:43.619Z,10.30
2023-04-03T03:23:11.815Z,10.39
2023-04-03T03:25:40.849Z,10.34
2023-04-03T03:28:09.350Z,10.29
2023-04-03T03:30:37.306Z,10.44
2023-04-03T03:33:05.147Z,10.55
2023-04-03T03:35:33.640Z,10.53
2023-04-03T03:38:03.680Z,10.50
2023-04-03T03:40:31.530Z,10.31
2023-04-03T03:42:59.019Z,10.65
2023-04-03T03:45:26.736Z,10.24
2023-04-03T03:47:54.565Z,10.50
2023-04-03T03:50:22.183Z,10.30
2023-04-03T03:52:49.857Z,10.45
2023-04-03T03:55:17.904Z,10.34
2023-04-03T03:57:45.713Z,10.38
2023-04-03T04:00:13.845Z,10.46
2023-04-03T04:02:47.933Z,10.33
2023-04-03T04:05:15.886Z,10.34
2023-04-03T04:07:43.657Z,10.42
2023-04-03T04:10:11.809Z,10.49
2023-04-03T04:12:39.482Z,10.60
2023-04-03T04:15:09.387Z,10.46
2023-04-03T04:17:37.132Z,10.50
2023-04-03T04:20:06.303Z,10.53
2023-04-03T04:22:34.245Z,10.43
2023-04-03T04:25:01.838Z,10.57
2023-04-03T04:27:30.761Z,10.49
2023-04-03T04:29:59.334Z,10.54
2023-04-03T04:32:27.367Z,10.51
2023-04-03T04:34:55.468Z,10.49
2023-04-03T04:37:23.307Z,10.65
2023-04-03T04:39:52.756Z,10.69
2023-04-03T04:42:20.418Z,10.66
2023-04-03T04:44:52.389Z,10.57
2023-04-03T04:47:20.705Z,10.70
2023-04-03T04:49:48.632Z,10.72
2023-04-03T04:52:17.306Z,10.74
2023-04-03T04:54:46.274Z,10.77
2023-04-03T04:57:16.927Z,10.84
2023-04-03T04:59:44.801Z,10.86
2023-04-03T05:02:15.032Z,10.90
2023-04-03T05:04:42.995Z,10.85
2023-04-03T05:07:10.829Z,10.84
2023-04-03T05:09:38.486Z,11.02
2023-04-03T05:12:08.601Z,10.94
2023-04-03T05:14:36.977Z,11.01
2023-04-03T05:17:04.497Z,11.15
2023-04-03T05:19:32.330Z,10.90
2023-04-03T05:21:59.960Z,10.92
2023-04-03T05:24:27.707Z,10.91
2023-04-03T05:26:55.361Z,10.91
2023-04-03T05:29:23.250Z,10.97
2023-04-03T05:31:51.612Z,10.98
2023-04-03T05:34:19.421Z,10.84
2023-04-03T05:36:47.137Z,10.92
2023-04-03T05:39:14.825Z,10.76
2023-04-03T05:41:42.532Z,10.92
2023-04-03T05:44:10.070Z,10.85
2023-04-03T05:46:37.562Z,10.83
2023-04-03T05:49:05.151Z,10.77
2023-04-03T05:51:37.227Z,10.86
2023-04-03T05:54:16.043Z,11.03
2023-04-03T05:56:51.558Z,10.93
2023-04-03T05:59:19.936Z,10.99
2023-04-03T06:01:47.866Z,10.94
2023-04-03T06:04:16.545Z,11.01
2023-04-03T06:06:55.309Z,11.12
2023-04-03T06:09:27.451Z,10.89
2023-04-03T06:11:55.270Z,10.93
2023-04-03T06:14:23.054Z,10.67
2023-04-03T06:16:50.774Z,10.88
2023-04-03T06:19:18.810Z,10.78
2023-04-03T06:21:46.494Z,10.64
2023-04-03T06:24:17.092Z,10.69
2023-04-03T06:26:45.460Z,10.76
2023-04-03T06:29:13.666Z,10.63
2023-04-03T06:31:41.714Z,10.82
2023-04-03T06:34:09.882Z,10.70
2023-04-03T06:36:37.562Z,10.73
2023-04-03T06:39:08.044Z,10.91
2023-04-03T06:41:37.109Z,10.98
2023-04-03T06:44:06.066Z,10.78
2023-04-03T06:46:33.713Z,10.88
2023-04-03T06:49:04.629Z,11.09
2023-04-03T06:51:32.207Z,10.95
2023-04-03T06:54:01.273Z,11.22
2023-04-03T06:56:29.379Z,11.45
2023-04-03T06:58:58.746Z,10.99
2023-04-03T07:01:28.954Z,10.99
2023-04-03T07:03:57.754Z,11.22
2023-04-03T07:06:28.192Z,10.96
2023-04-03T07:08:56.667Z,11.15
2023-04-03T07:11:30.231Z,11.32
2023-04-03T07:13:57.968Z,11.26
2023-04-03T07:16:26.326Z,11.30
2023-04-03T07:18:58.698Z,11.28
2023-04-03T07:21:27.122Z,11.21
2023-04-03T07:23:54.964Z,11.18
2023-04-03T07:26:23.747Z,11.33
2023-04-03T07:28:51.377Z,11.23
2023-04-03T07:31:19.860Z,11.05
2023-04-03T07:33:47.830Z,11.12
2023-04-03T07:36:22.062Z,11.08
2023-04-03T07:38:50.425Z,11.16
2023-04-03T07:41:22.288Z,11.40
2023-04-03T07:43:50.992Z,11.48
2023-04-03T07:46:18.813Z,11.53
2023-04-03T07:48:47.379Z,11.66
2023-04-03T07:51:14.934Z,11.67
2023-04-03T07:53:43.462Z,11.44
2023-04-03T07:56:11.593Z,11.56
2023-04-03T07:58:42.134Z,11.43
2023-04-03T08:01:09.949Z,11.26
2023-04-03T08:03:40.716Z,11.40
2023-04-03T08:06:15.697Z,11.23
2023-04-03T08:08:44.100Z,11.19
2023-04-03T08:11:12.718Z,11.16
2023-04-03T08:13:42.602Z,10.85
2023-04-03T08:16:17.749Z,11.13
2023-04-03T08:18:45.980Z,10.99
2023-04-03T08:21:14.066Z,10.79
2023-04-03T08:23:44.168Z,10.65
2023-04-03T08:26:16.836Z,10.81
2023-04-03T08:28:49.142Z,10.88
2023-04-03T08:31:21.200Z,10.77
2023-04-03T08:33:50.446Z,10.86
2023-04-03T08:36:24.304Z,10.58
2023-04-03T08:38:53.472Z,10.74
2023-04-03T08:41:44.879Z,10.44
2023-04-03T08:44:19.861Z,10.48
2023-04-03T08:47:07.592Z,10.61
2023-04-03T08:49:48.286Z,10.50
2023-04-03T08:52:33.172Z,10.48
2023-04-03T08:55:05.517Z,10.90
2023-04-03T08:57:39.704Z,10.92
2023-04-03T09:00:23.767Z,10.91
2023-04-03T09:02:55.145Z,10.62
2023-04-03T09:05:31.491Z,10.71
2023-04-03T09:08:22.934Z,10.63
2023-04-03T09:10:59.564Z,10.50
2023-04-03T09:13:54.931Z,10.48
2023-04-03T09:16:55.708Z,10.70
2023-04-03T09:19:26.888Z,10.67
2023-04-03T09:21:57.309Z,11.02
2023-04-03T09:24:26.165Z,10.88
2023-04-03T09:27:04.636Z,10.86
2023-04-03T09:29:39.145Z,10.92
2023-04-03T09:32:33.622Z,11.11
2023-04-03T09:35:27.304Z,11.06
2023-04-03T09:38:03.551Z,10.86
2023-04-03T09:40:40.419Z,10.90
2023-04-03T09:43:17.356Z,10.80
2023-04-03T09:45:48.428Z,10.70
2023-04-03T09:48:17.147Z,10.63
2023-04-03T09:51:02.669Z,10.63
2023-04-03T09:53:43.065Z,10.49
2023-04-03T09:56:16.962Z,10.65
2023-04-03T09:58:51.288Z,10.54
2023-04-03T10:01:29.348Z,10.53
2023-04-03T10:04:24.902Z,10.74
2023-04-03T10:06:55.220Z,10.70
2023-04-03T10:09:27.384Z,10.77
2023-04-03T10:12:14.083Z,10.53
2023-04-03T10:14:55.851Z,10.56
2023-04-03T10:17:33.583Z,10.54
2023-04-03T10:20:38.719Z,10.57
2023-04-03T10:23:28.047Z,10.64
2023-04-03T10:26:02.024Z,10.74
2023-04-03T10:28:55.532Z,10.63
2023-04-03T10:31:33.504Z,10.51
2023-04-03T10:34:27.312Z,10.40
2023-04-03T10:37:16.434Z,10.55
2023-04-03T10:40:02.517Z,10.49
2023-04-03T10:42:57.271Z,10.33
2023-04-03T10:45:25.104Z,10.60
2023-04-03T10:47:56.075Z,10.70
2023-04-03T10:50:38.320Z,10.67
2023-04-03T10:53:14.941Z,10.99
2023-04-03T10:55:56.550Z,10.92
2023-04-03T10:58:35.830Z,11.14
2023-04-03T11:01:20.302Z,10.89
2023-04-03T11:03:56.018Z,11.07
2023-04-03T11:06:28.051Z,11.07
2023-04-03T11:09:04.803Z,11.23
2023-04-03T11:11:36.923Z,11.48
2023-04-03T11:14:25.828Z,11.12
2023-04-03T11:17:05.875Z,10.83
2023-04-03T11:19:46.137Z,11.17
2023-04-03T11:22:30.038Z,11.23
2023-04-03T11:25:06.830Z,11.32
2023-04-03T11:27:50.677Z,11.00
2023-04-03T11:30:45.300Z,11.03
2023-04-03T11:33:29.717Z,11.58
2023-04-03T11:36:05.406Z,11.59
2023-04-03T11:38:43.681Z,11.40
2023-04-03T11:41:13.757Z,11.24
2023-04-03T11:43:57.699Z,11.41
2023-04-03T11:46:57.920Z,11.37
2023-04-03T11:50:03.623Z,11.62
2023-04-03T11:52:43.321Z,11.31
2023-04-03T11:55:21.343Z,11.85
2023-04-03T11:58:00.218Z,12.10
2023-04-03T12:00:52.443Z,11.67
2023-04-03T12:03:24.430Z,11.73
2023-04-03T12:06:14.714Z,12.07
2023-04-03T12:08:43.371Z,12.29
2023-04-03T12:11:13.655Z,12.51
2023-04-03T12:13:53.356Z,12.77
2023-04-03T12:16:26.141Z,12.48
2023-04-03T12:19:05.644Z,12.76
2023-04-03T12:21:46.101Z,12.68
2023-04-03T12:24:16.976Z,12.69
2023-04-03T12:26:52.482Z,12.74
2023-04-03T12:29:41.377Z,12.27
2023-04-03T12:32:15.891Z,12.88
2023-04-03T12:35:07.723Z,12.81
2023-04-03T12:37:43.478Z,12.21
2023-04-03T12:40:28.159Z,12.23
2023-04-03T12:43:23.370Z,12.01
2023-04-03T12:46:17.124Z,12.00
2023-04-03T12:48:57.018Z,11.42
2023-04-03T12:51:37.097Z,10.98
2023-04-03T12:54:20.044Z,10.78
2023-04-03T12:56:47.592Z,10.69
2023-04-03T12:59:28.039Z,10.85
2023-04-03T13:01:58.932Z,10.55
2023-04-03T13:04:32.958Z,10.80
2023-04-03T13:07:01.066Z,10.94
2023-04-03T13:09:31.898Z,10.66
2023-04-03T13:12:16.388Z,10.82
2023-04-03T13:14:57.224Z,10.65
2023-04-03T13:17:27.354Z,10.74
2023-04-03T13:19:55.466Z,10.45
2023-04-03T13:22:25.966Z,10.64
2023-04-03T13:24:55.475Z,10.55
2023-04-03T13:27:24.059Z,10.73
2023-04-03T13:29:55.004Z,10.58
2023-04-03T13:32:29.672Z,10.65
2023-04-03T13:35:00.431Z,10.64
2023-04-03T13:37:36.215Z,10.46
2023-04-03T13:40:09.476Z,10.48
2023-04-03T13:42:42.296Z,10.44
2023-04-03T13:45:27.379Z,10.68
2023-04-03T13:48:22.156Z,10.77
2023-04-03T13:51:00.741Z,10.73
2023-04-03T13:53:34.256Z,11.17
2023-04-03T13:56:05.086Z,11.04
2023-04-03T13:58:35.170Z,11.34
2023-04-03T14:01:17.438Z,11.33
2023-04-03T14:03:56.651Z,11.31
2023-04-03T14:06:25.573Z,11.61
2023-04-03T14:08:54.402Z,11.48
2023-04-03T14:11:29.888Z,11.68
2023-04-03T14:14:01.552Z,11.66
2023-04-03T14:16:33.397Z,11.83
2023-04-03T14:19:01.326Z,11.91
2023-04-03T14:21:29.151Z,11.91
2023-04-03T14:23:58.144Z,11.92
2023-04-03T14:26:28.258Z,11.85
2023-04-03T14:28:56.774Z,12.08
2023-04-03T14:31:24.828Z,11.86
2023-04-03T14:33:53.485Z,12.04
2023-04-03T14:36:26.575Z,11.71
2023-04-03T14:38:54.891Z,11.70
2023-04-03T14:41:24.910Z,11.71
2023-04-03T14:43:54.886Z,11.94
2023-04-03T14:46:43.441Z,12.25
2023-04-03T14:49:23.683Z,12.13
2023-04-03T14:51:51.691Z,12.25
2023-04-03T14:54:26.574Z,12.42
2023-04-03T14:56:56.719Z,12.23
2023-04-03T14:59:24.488Z,12.34
2023-04-03T15:01:52.407Z,12.42
2023-04-03T15:04:21.762Z,12.23
2023-04-03T15:06:51.032Z,12.09
2023-04-03T15:09:25.045Z,12.04
2023-04-03T15:11:55.109Z,12.10
2023-04-03T15:14:35.543Z,12.06
2023-04-03T15:17:18.791Z,12.23
2023-04-03T15:19:50.161Z,11.96
2023-04-03T15:22:22.220Z,12.10
2023-04-03T15:24:49.986Z,12.07
2023-04-03T15:27:17.842Z,12.01
2023-04-03T15:29:46.157Z,12.03
2023-04-03T15:32:14.765Z,11.92
2023-04-03T15:34:42.569Z,11.73
2023-04-03T15:37:13.247Z,11.79
2023-04-03T15:39:41.048Z,11.78
2023-04-03T15:42:09.147Z,11.54
2023-04-03T15:44:37.622Z,11.88
2023-04-03T15:47:05.568Z,11.90
2023-04-03T15:49:36.739Z,11.72
2023-04-03T15:52:04.673Z,11.62
2023-04-03T15:54:32.729Z,11.59
2023-04-03T15:57:00.396Z,11.67
2023-04-03T15:59:30.860Z,11.88
2023-04-03T16:01:59.917Z,11.86
2023-04-03T16:04:28.523Z,12.04
2023-04-03T16:06:58.784Z,12.06
2023-04-03T16:09:27.578Z,12.14
2023-04-03T16:11:57.452Z,12.28
2023-04-03T16:14:25.157Z,12.47
2023-04-03T16:16:52.768Z,12.18
2023-04-03T16:19:25.203Z,12.51
2023-04-03T16:21:55.619Z,12.60
2023-04-03T16:24:23.837Z,12.58
2023-04-03T16:26:51.557Z,12.50
2023-04-03T16:29:19.195Z,12.53
2023-04-03T16:31:50.326Z,12.21
2023-04-03T16:34:18.048Z,12.53
2023-04-03T16:36:45.807Z,12.15
2023-04-03T16:39:13.526Z,12.30
2023-04-03T16:41:41.729Z,12.26
2023-04-03T16:44:09.363Z,11.96
2023-04-03T16:46:37.356Z,12.20
2023-04-03T16:49:05.204Z,12.03
2023-04-03T16:51:33.200Z,11.79
2023-04-03T16:54:01.081Z,11.35
2023-04-03T16:56:28.982Z,11.64
2023-04-03T16:58:56.718Z,11.81
2023-04-03T17:01:24.529Z,11.49
2023-04-03T17:03:53.048Z,11.24
2023-04-03T17:06:24.492Z,10.98
2023-04-03T17:08:53.333Z,11.47
2023-04-03T17:11:23.294Z,11.78
2023-04-03T17:13:52.545Z,11.42
2023-04-03T17:16:20.642Z,11.28
2023-04-03T17:18:49.466Z,11.28
2023-04-03T17:21:18.148Z,11.36
2023-04-03T17:23:50.074Z,11.13
2023-04-03T17:26:18.026Z,11.14
2023-04-03T17:28:46.843Z,11.01
2023-04-03T17:31:14.941Z,11.37
2023-04-03T17:33:43.391Z,11.43
2023-04-03T17:36:11.597Z,11.07
2023-04-03T17:38:41.340Z,11.33
2023-04-03T17:41:09.706Z,11.35
2023-04-03T17:43:38.410Z,11.07
2023-04-03T17:46:09.234Z,11.10
2023-04-03T17:48:39.842Z,10.99
2023-04-03T17:51:11.750Z,11.02
2023-04-03T17:53:43.801Z,11.33
2023-04-03T17:56:16.577Z,11.19
2023-04-03T17:58:44.939Z,10.85
2023-04-03T18:01:26.155Z,11.18
2023-04-03T18:03:56.830Z,11.17
2023-04-03T18:06:33.979Z,11.13
2023-04-03T18:09:26.247Z,11.18
2023-04-03T18:11:55.980Z,11.14
2023-04-03T18:14:27.243Z,11.30
2023-04-03T18:16:57.641Z,11.17
2023-04-03T18:19:28.401Z,11.53
2023-04-03T18:22:02.298Z,11.12
2023-04-03T18:24:34.250Z,10.80
2023-04-03T18:27:14.518Z,10.95
2023-04-03T18:29:45.233Z,10.63
2023-04-03T18:32:20.652Z,10.58
2023-04-03T18:34:48.581Z,10.66
2023-04-03T18:37:19.230Z,10.67
2023-04-03T18:39:47.929Z,10.67
2023-04-03T18:42:18.825Z,10.63
2023-04-03T18:44:49.828Z,10.84
2023-04-03T18:47:18.078Z,10.67
2023-04-03T18:49:46.094Z,10.69
2023-04-03T18:52:14.376Z,10.79
2023-04-03T18:54:43.012Z,10.97
2023-04-03T18:57:10.730Z,10.65
2023-04-03T18:59:38.932Z,10.79
2023-04-03T19:02:08.784Z,10.68
2023-04-03T19:04:37.109Z,10.44
2023-04-03T19:07:06.702Z,10.64
2023-04-03T19:09:35.594Z,10.77
2023-04-03T19:12:03.445Z,10.69
2023-04-03T19:14:37.270Z,10.76
2023-04-03T19:17:07.555Z,11.14
2023-04-03T19:19:35.396Z,10.91
2023-04-03T19:22:03.196Z,10.95
2023-04-03T19:24:30.978Z,11.03
2023-04-03T19:27:01.389Z,11.07
2023-04-03T19:29:30.353Z,10.96
2023-04-03T19:31:57.981Z,11.01
2023-04-03T19:34:25.690Z,10.98
2023-04-03T19:36:53.340Z,10.91
2023-04-03T19:39:24.047Z,10.64
2023-04-03T19:41:51.691Z,10.73
2023-04-03T19:44:22.745Z,10.83
2023-04-03T19:46:51.387Z,10.68
2023-04-03T19:49:20.116Z,10.57
2023-04-03T19:51:47.754Z,10.42
2023-04-03T19:54:15.443Z,10.76
2023-04-03T19:56:44.308Z,10.71
2023-04-03T19:59:12.314Z,10.25
2023-04-03T20:01:41.185Z,10.61
2023-04-03T20:04:09.285Z,10.32
2023-04-03T20:06:37.005Z,10.43
2023-04-03T20:09:04.954Z,10.58
2023-04-03T20:11:37.735Z,10.58
2023-04-03T20:14:05.770Z,10.47
2023-04-03T20:16:33.922Z,10.50
2023-04-03T20:19:01.727Z,10.42
2023-04-03T20:21:34.388Z,10.47
2023-04-03T20:24:04.682Z,10.42
2023-04-03T20:26:34.132Z,10.64
2023-04-03T20:29:02.777Z,10.76
2023-04-03T20:31:32.831Z,10.68
2023-04-03T20:34:02.140Z,10.91
2023-04-03T20:36:31.272Z,10.86
2023-04-03T20:39:00.009Z,10.54
2023-04-03T20:41:27.756Z,10.66
2023-04-03T20:43:56.062Z,10.93
2023-04-03T20:46:38.359Z,10.82
2023-04-03T20:49:16.443Z,10.86
2023-04-03T20:51:44.190Z,10.70
2023-04-03T20:54:13.004Z,10.58
2023-04-03T20:56:41.275Z,10.81
2023-04-03T20:59:11.589Z,10.49
2023-04-03T21:01:39.914Z,10.63
2023-04-03T21:04:15.939Z,10.77
2023-04-03T21:07:21.703Z,10.63
2023-04-03T21:10:28.425Z,10.54
2023-04-03T21:13:33.914Z,10.67
2023-04-03T21:16:01.635Z,10.50
2023-04-03T21:18:38.137Z,10.73
2023-04-03T21:21:06.069Z,10.81
2023-04-03T21:23:34.406Z,10.86
2023-04-03T21:26:02.171Z,10.97
2023-04-03T21:28:30.067Z,10.98
2023-04-03T21:30:57.659Z,11.25
2023-04-03T21:33:27.554Z,11.33
2023-04-03T21:35:57.927Z,11.25
2023-04-03T21:38:28.834Z,11.23
2023-04-03T21:40:58.272Z,11.24
2023-04-03T21:43:26.019Z,11.38
2023-04-03T21:45:56.600Z,11.27
2023-04-03T21:48:25.583Z,10.92
2023-04-03T21:50:53.796Z,10.85
2023-04-03T21:53:23.217Z,10.69
2023-04-03T21:55:54.708Z,10.61
2023-04-03T21:58:32.250Z,10.96
2023-04-03T22:01:14.089Z,10.82
2023-04-03T22:03:44.102Z,10.89
2023-04-03T22:06:15.008Z,11.13
2023-04-03T22:08:43.048Z,11.16
2023-04-03T22:11:14.900Z,11.17
2023-04-03T22:13:44.219Z,11.16
2023-04-03T22:16:13.091Z,11.25
2023-04-03T22:18:42.328Z,11.32
2023-04-03T22:21:10.309Z,11.16
2023-04-03T22:23:39.969Z,11.23
2023-04-03T22:26:09.869Z,11.16
2023-04-03T22:28:41.433Z,11.26
2023-04-03T22:31:29.390Z,11.25
2023-04-03T22:33:56.965Z,11.30
2023-04-03T22:36:25.560Z,11.28
2023-04-03T22:38:53.079Z,11.32
2023-04-03T22:41:20.571Z,11.34
2023-04-03T22:43:48.151Z,11.45
2023-04-03T22:46:19.235Z,11.50
2023-04-03T22:48:48.494Z,11.43
2023-04-03T22:51:16.245Z,11.31
2023-04-03T22:53:44.106Z,11.40
2023-04-03T22:56:11.686Z,11.30
2023-04-03T22:58:40.603Z,11.37
2023-04-03T23:01:14.164Z,11.49
2023-04-03T23:03:43.128Z,11.19
2023-04-03T23:06:11.406Z,11.12
2023-04-03T23:08:42.578Z,11.21
2023-04-03T23:11:10.421Z,11.16
2023-04-03T23:13:38.418Z,11.16
2023-04-03T23:16:06.918Z,11.29
2023-04-03T23:18:34.653Z,11.21
2023-04-03T23:21:09.510Z,11.27
2023-04-03T23:23:38.329Z,11.31
2023-04-03T23:26:06.525Z,11.46
2023-04-03T23:28:34.449Z,11.20
2023-04-03T23:31:04.069Z,11.20
2023-04-03T23:33:32.656Z,11.36
2023-04-03T23:36:01.439Z,11.38
2023-04-03T23:38:33.976Z,11.41
2023-04-03T23:41:01.611Z,11.03
2023-04-03T23:43:29.571Z,10.95
2023-04-03T23:45:57.654Z,11.04
2023-04-03T23:48:25.738Z,11.21
2023-04-03T23:50:53.597Z,11.20
2023-04-03T23:53:21.141Z,11.02
2023-04-03T23:55:48.767Z,11.19
2023-04-03T23:58:16.821Z,11.15
